createdAt,value
2019-02-08T00:00:51.243Z,21.50
2019-02-08T00:03:23.347Z,24.40
2019-02-08T00:05:55.444Z,23.33
2019-02-08T00:08:27.569Z,21.70
2019-02-08T00:10:59.599Z,23.13
2019-02-08T00:13:31.562Z,20.47
2019-02-08T00:16:03.685Z,23.57
2019-02-08T00:18:35.652Z,19.77
2019-02-08T00:21:09.575Z,19.03
2019-02-08T00:23:41.555Z,19.27
2019-02-08T00:26:13.588Z,18.60
2019-02-08T00:28:45.569Z,22.23
2019-02-08T00:31:17.573Z,19.90
2019-02-08T00:33:49.856Z,18.57
2019-02-08T00:36:21.839Z,22.20
2019-02-08T00:38:53.830Z,18.60
2019-02-08T00:41:25.819Z,18.57
2019-02-08T00:43:57.767Z,17.90
2019-02-08T00:46:30.074Z,16.90
2019-02-08T00:49:02.072Z,21.20
2019-02-08T00:51:34.089Z,17.27
2019-02-08T00:54:06.106Z,16.60
2019-02-08T00:56:38.088Z,15.10
2019-02-08T00:59:10.371Z,14.07
2019-02-08T01:01:42.376Z,15.07
2019-02-08T01:04:14.342Z,13.47
2019-02-08T01:06:46.341Z,11.47
2019-02-08T01:09:18.314Z,9.63
2019-02-08T01:11:50.718Z,10.13
2019-02-08T01:14:22.699Z,9.43
2019-02-08T01:16:54.719Z,11.43
2019-02-08T01:19:26.773Z,8.97
2019-02-08T01:21:58.769Z,9.80
2019-02-08T01:24:30.734Z,9.47
2019-02-08T01:27:02.927Z,10.83
2019-02-08T01:29:34.891Z,13.17
2019-02-08T01:32:06.920Z,9.77
2019-02-08T01:34:38.882Z,9.37
2019-02-08T01:37:10.865Z,9.77
2019-02-08T01:39:42.855Z,9.30
2019-02-08T01:42:14.818Z,12.03
2019-02-08T01:44:46.799Z,11.07
2019-02-08T01:47:18.761Z,10.90
2019-02-08T01:49:50.792Z,9.83
2019-02-08T01:52:22.752Z,8.60
2019-02-08T01:54:54.716Z,8.17
2019-02-08T01:57:26.699Z,8.37
2019-02-08T01:59:58.680Z,8.90
2019-02-08T02:02:30.764Z,11.20
2019-02-08T02:05:03.042Z,11.70
2019-02-08T02:07:35.030Z,9.40
2019-02-08T02:10:11.485Z,10.07
2019-02-08T02:12:43.469Z,10.80
2019-02-08T02:15:15.454Z,11.00
2019-02-08T02:17:47.402Z,13.00
2019-02-08T02:20:21.153Z,9.80
2019-02-08T02:22:53.216Z,9.80
2019-02-08T02:25:25.184Z,9.03
2019-02-08T02:27:57.148Z,10.93
2019-02-08T02:30:31.145Z,12.93
2019-02-08T02:33:05.962Z,10.00
2019-02-08T02:35:37.979Z,10.07
2019-02-08T02:38:10.033Z,9.27
2019-02-08T02:40:42.002Z,10.27
2019-02-08T02:43:13.991Z,8.83
2019-02-08T02:45:45.967Z,10.17
2019-02-08T02:48:17.955Z,9.27
2019-02-08T02:50:49.970Z,8.50
2019-02-08T02:53:22.820Z,9.53
2019-02-08T02:55:54.815Z,9.97
2019-02-08T02:58:26.802Z,10.23
2019-02-08T03:00:58.772Z,8.13
2019-02-08T03:03:30.756Z,7.60
2019-02-08T03:06:02.729Z,8.17
2019-02-08T03:08:34.760Z,8.73
2019-02-08T03:11:06.777Z,9.27
2019-02-08T03:13:38.732Z,9.43
2019-02-08T03:16:10.713Z,9.43
2019-02-08T03:18:42.666Z,9.60
2019-02-08T03:21:14.682Z,8.23
2019-02-08T03:23:46.628Z,7.77
2019-02-08T03:26:18.636Z,7.83
2019-02-08T03:28:50.928Z,9.50
2019-02-08T03:31:22.964Z,8.67
2019-02-08T03:33:54.925Z,11.13
2019-02-08T03:36:26.896Z,9.33
2019-02-08T03:38:58.875Z,8.17
2019-02-08T03:41:30.862Z,9.77
2019-02-08T03:44:03.017Z,9.00
2019-02-08T03:46:35.008Z,8.73
2019-02-08T03:49:07.034Z,11.50
2019-02-08T03:51:39.034Z,8.13
2019-02-08T03:54:11.091Z,10.43
2019-02-08T03:56:43.057Z,8.37
2019-02-08T03:59:15.034Z,10.30
2019-02-08T04:01:46.993Z,7.37
2019-02-08T04:04:18.972Z,9.50
2019-02-08T04:06:50.947Z,8.33
2019-02-08T04:09:22.929Z,9.80
2019-02-08T04:11:54.896Z,7.73
2019-02-08T04:14:26.896Z,8.63
2019-02-08T04:16:58.848Z,8.53
2019-02-08T04:19:30.838Z,9.77
2019-02-08T04:22:02.834Z,7.40
2019-02-08T04:24:34.835Z,10.87
2019-02-08T04:27:06.857Z,9.67
2019-02-08T04:29:38.880Z,12.70
2019-02-08T04:32:10.897Z,9.80
2019-02-08T04:34:42.883Z,10.13
2019-02-08T04:37:14.852Z,10.00
2019-02-08T04:39:46.868Z,10.10
2019-02-08T04:42:18.872Z,10.60
2019-02-08T04:44:50.873Z,8.90
2019-02-08T04:47:22.851Z,8.13
2019-02-08T04:49:54.852Z,8.83
2019-02-08T04:52:26.834Z,7.70
2019-02-08T04:54:58.808Z,9.23
2019-02-08T04:57:31.046Z,7.40
2019-02-08T05:00:06.448Z,7.47
2019-02-08T05:02:38.468Z,8.50
2019-02-08T05:05:10.743Z,8.00
2019-02-08T05:07:42.755Z,9.70
2019-02-08T05:10:16.980Z,8.37
2019-02-08T05:12:49.105Z,9.67
2019-02-08T05:15:23.095Z,7.13
2019-02-08T05:17:55.626Z,7.67
2019-02-08T05:20:27.751Z,7.10
2019-02-08T05:22:59.695Z,8.00
2019-02-08T05:25:31.680Z,8.23
2019-02-08T05:28:03.946Z,7.03
2019-02-08T05:30:35.924Z,7.20
2019-02-08T05:33:07.956Z,8.07
2019-02-08T05:35:39.919Z,7.60
2019-02-08T05:38:11.867Z,7.27
2019-02-08T05:40:43.868Z,7.47
2019-02-08T05:43:15.812Z,7.13
2019-02-08T05:45:47.799Z,8.17
2019-02-08T05:48:19.798Z,6.20
2019-02-08T05:50:51.815Z,8.27
2019-02-08T05:53:23.792Z,6.90
2019-02-08T05:55:55.783Z,8.40
2019-02-08T05:58:27.781Z,10.87
2019-02-08T06:00:59.793Z,10.67
2019-02-08T06:03:31.825Z,9.20
2019-02-08T06:06:04.354Z,8.03
2019-02-08T06:08:36.346Z,7.83
2019-02-08T06:11:08.333Z,7.77
2019-02-08T06:13:40.304Z,8.80
2019-02-08T06:16:12.283Z,8.27
2019-02-08T06:18:44.253Z,9.03
2019-02-08T06:21:16.217Z,8.27
2019-02-08T06:23:48.191Z,8.60
2019-02-08T06:26:20.323Z,8.33
2019-02-08T06:28:52.308Z,9.07
2019-02-08T06:31:24.320Z,8.17
2019-02-08T06:33:56.312Z,7.47
2019-02-08T06:36:28.280Z,7.07
2019-02-08T06:39:00.297Z,10.23
2019-02-08T06:41:32.312Z,9.07
2019-02-08T06:44:04.624Z,8.80
2019-02-08T06:46:36.588Z,8.90
2019-02-08T06:49:08.629Z,10.10
2019-02-08T06:51:40.640Z,8.57
2019-02-08T06:54:12.630Z,10.67
2019-02-08T06:57:10.348Z,9.30
2019-02-08T07:00:00.519Z,9.20
2019-02-08T07:02:55.101Z,9.70
2019-02-08T07:05:45.064Z,8.87
2019-02-08T07:08:36.978Z,8.00
2019-02-08T07:11:21.160Z,11.03
2019-02-08T07:14:15.592Z,10.37
2019-02-08T07:17:10.117Z,9.43
2019-02-08T07:19:57.645Z,9.53
2019-02-08T07:22:49.223Z,10.27
2019-02-08T07:25:49.926Z,8.83
2019-02-08T07:28:30.663Z,8.43
2019-02-08T07:31:22.410Z,8.10
2019-02-08T07:34:17.031Z,8.90
2019-02-08T07:37:06.361Z,9.60
2019-02-08T07:40:11.178Z,14.00
2019-02-08T07:43:01.882Z,9.63
2019-02-08T07:46:10.241Z,9.47
2019-02-08T07:49:02.269Z,9.83
2019-02-08T07:52:09.051Z,11.00
2019-02-08T07:55:00.736Z,11.00
2019-02-08T07:57:55.254Z,10.77
2019-02-08T08:00:56.281Z,10.03
2019-02-08T08:03:46.391Z,12.97
2019-02-08T08:06:31.550Z,13.60
2019-02-08T08:09:15.676Z,12.80
2019-02-08T08:12:07.385Z,10.67
2019-02-08T08:14:58.293Z,10.53
2019-02-08T08:17:55.874Z,9.37
2019-02-08T08:20:42.477Z,10.83
2019-02-08T08:23:26.239Z,9.67
2019-02-08T08:26:19.222Z,9.70
2019-02-08T08:29:08.562Z,11.80
2019-02-08T08:32:01.988Z,9.70
2019-02-08T08:35:06.009Z,8.33
2019-02-08T08:38:22.721Z,8.27
2019-02-08T08:41:39.329Z,7.60
2019-02-08T08:44:55.274Z,7.87
2019-02-08T08:48:26.973Z,6.90
2019-02-08T08:51:41.090Z,7.77
2019-02-08T08:54:59.747Z,9.53
2019-02-08T08:58:04.802Z,10.03
2019-02-08T09:01:00.177Z,10.00
2019-02-08T09:04:12.390Z,10.87
2019-02-08T09:07:21.136Z,14.40
2019-02-08T09:10:34.998Z,13.43
2019-02-08T09:13:57.420Z,13.30
2019-02-08T09:17:19.097Z,11.70
2019-02-08T09:20:23.812Z,10.57
2019-02-08T09:23:24.659Z,11.10
2019-02-08T09:26:55.622Z,11.10
2019-02-08T09:30:04.162Z,9.13
2019-02-08T09:33:07.559Z,12.80
2019-02-08T09:36:47.219Z,13.80
2019-02-08T09:40:06.631Z,16.97
2019-02-08T09:43:29.759Z,13.47
2019-02-08T09:46:28.650Z,12.90
2019-02-08T09:49:26.404Z,14.33
2019-02-08T09:53:10.784Z,16.33
2019-02-08T09:56:19.223Z,12.03
2019-02-08T09:59:44.866Z,10.20
2019-02-08T10:03:16.655Z,11.40
2019-02-08T10:06:26.597Z,9.57
2019-02-08T10:09:35.214Z,9.13
2019-02-08T10:12:30.535Z,9.13
2019-02-08T10:15:32.510Z,8.10
2019-02-08T10:19:07.700Z,8.60
2019-02-08T10:22:33.128Z,9.50
2019-02-08T10:26:05.522Z,8.50
2019-02-08T10:29:24.440Z,9.07
2019-02-08T10:32:25.611Z,7.70
2019-02-08T10:35:35.090Z,7.07
2019-02-08T10:39:00.915Z,8.43
2019-02-08T10:42:16.436Z,6.40
2019-02-08T10:45:42.304Z,7.03
2019-02-08T10:48:52.160Z,7.10
2019-02-08T10:52:04.604Z,6.73
2019-02-08T10:55:13.219Z,7.60
2019-02-08T10:58:37.790Z,6.50
2019-02-08T11:02:06.888Z,7.27
2019-02-08T11:05:15.605Z,5.33
2019-02-08T11:08:37.769Z,6.17
2019-02-08T11:11:50.810Z,5.20
2019-02-08T11:14:44.709Z,5.67
2019-02-08T11:18:03.256Z,7.23
2019-02-08T11:20:35.280Z,6.40
2019-02-08T11:23:07.265Z,5.13
2019-02-08T11:25:39.308Z,5.53
2019-02-08T11:28:11.306Z,6.37
2019-02-08T11:30:43.338Z,4.83
2019-02-08T11:33:15.386Z,5.27
2019-02-08T11:35:47.509Z,5.17
2019-02-08T11:38:19.489Z,4.50
2019-02-08T11:40:51.552Z,6.70
2019-02-08T11:43:23.545Z,5.80
2019-02-08T11:45:55.552Z,6.17
2019-02-08T11:48:27.559Z,7.30
2019-02-08T11:50:59.650Z,4.43
2019-02-08T11:53:31.704Z,4.77
2019-02-08T11:56:04.370Z,5.87
2019-02-08T11:58:36.465Z,9.20
2019-02-08T12:01:08.512Z,6.17
2019-02-08T12:03:40.609Z,4.57
2019-02-08T12:06:12.601Z,5.00
2019-02-08T12:08:44.622Z,4.80
2019-02-08T12:11:16.678Z,4.17
2019-02-08T12:13:48.701Z,5.87
2019-02-08T12:16:20.757Z,6.17
2019-02-08T12:18:52.804Z,3.73
2019-02-08T12:21:24.845Z,4.97
2019-02-08T12:23:56.934Z,8.07
2019-02-08T12:26:28.930Z,5.63
2019-02-08T12:29:00.957Z,4.57
2019-02-08T12:31:32.950Z,6.87
2019-02-08T12:34:05.428Z,5.40
2019-02-08T12:36:37.435Z,7.27
2019-02-08T12:39:10.513Z,7.70
2019-02-08T12:41:43.645Z,6.53
2019-02-08T12:44:15.710Z,5.53
2019-02-08T12:46:47.684Z,5.00
2019-02-08T12:49:19.741Z,5.10
2019-02-08T12:51:51.802Z,5.80
2019-02-08T12:54:24.097Z,5.93
2019-02-08T12:56:56.146Z,5.80
2019-02-08T12:59:28.189Z,8.07
2019-02-08T13:02:00.225Z,7.20
2019-02-08T13:04:32.246Z,5.20
2019-02-08T13:07:04.353Z,5.17
2019-02-08T13:09:36.387Z,7.40
2019-02-08T13:12:08.374Z,7.13
2019-02-08T13:14:40.428Z,6.40
2019-02-08T13:17:12.496Z,7.83
2019-02-08T13:19:44.531Z,6.03
2019-02-08T13:22:16.575Z,5.43
2019-02-08T13:24:48.639Z,5.97
2019-02-08T13:27:20.696Z,6.77
2019-02-08T13:29:52.709Z,7.07
2019-02-08T13:32:24.762Z,4.60
2019-02-08T13:34:56.834Z,6.60
2019-02-08T13:37:28.862Z,6.00
2019-02-08T13:40:00.926Z,5.07
2019-02-08T13:42:32.953Z,4.90
2019-02-08T13:45:05.323Z,4.47
2019-02-08T13:47:37.623Z,5.53
2019-02-08T13:50:12.808Z,7.60
2019-02-08T13:52:44.845Z,4.50
2019-02-08T13:55:18.034Z,4.60
2019-02-08T13:57:50.098Z,4.67
2019-02-08T14:00:25.206Z,3.93
2019-02-08T14:02:57.312Z,4.67
2019-02-08T14:05:29.970Z,4.90
2019-02-08T14:08:01.979Z,4.63
2019-02-08T14:10:34.023Z,7.80
2019-02-08T14:13:09.363Z,4.30
2019-02-08T14:15:41.398Z,4.67
2019-02-08T14:18:13.417Z,5.00
2019-02-08T14:20:45.427Z,5.10
2019-02-08T14:23:17.467Z,7.00
2019-02-08T14:25:49.480Z,3.43
2019-02-08T14:28:21.664Z,5.50
2019-02-08T14:30:54.811Z,4.23
2019-02-08T14:33:26.866Z,4.47
2019-02-08T14:35:58.910Z,4.53
2019-02-08T14:38:30.968Z,5.57
2019-02-08T14:41:04.325Z,4.30
2019-02-08T14:43:36.370Z,3.67
2019-02-08T14:46:08.388Z,5.20
2019-02-08T14:48:40.446Z,2.77
2019-02-08T14:51:12.495Z,3.43
2019-02-08T14:53:44.530Z,4.10
2019-02-08T14:56:16.644Z,4.33
2019-02-08T14:58:48.736Z,3.67
2019-02-08T15:01:20.740Z,4.73
2019-02-08T15:03:52.799Z,3.97
2019-02-08T15:06:24.921Z,3.27
2019-02-08T15:08:57.012Z,5.43
2019-02-08T15:11:29.135Z,4.17
2019-02-08T15:14:01.263Z,4.50
2019-02-08T15:16:33.283Z,5.17
2019-02-08T15:19:05.415Z,4.03
2019-02-08T15:21:37.430Z,4.00
2019-02-08T15:24:09.512Z,6.13
2019-02-08T15:26:42.807Z,4.60
2019-02-08T15:29:15.011Z,6.33
2019-02-08T15:31:47.000Z,6.73
2019-02-08T15:34:19.063Z,5.20
2019-02-08T15:36:51.363Z,5.73
2019-02-08T15:39:23.555Z,9.10
2019-02-08T15:41:55.579Z,9.03
2019-02-08T15:44:27.636Z,5.37
2019-02-08T15:46:59.659Z,4.87
2019-02-08T15:49:31.818Z,6.57
2019-02-08T15:52:04.018Z,7.07
2019-02-08T15:54:36.630Z,9.80
2019-02-08T15:57:08.705Z,6.00
2019-02-08T15:59:40.718Z,5.47
2019-02-08T16:02:12.786Z,5.40
2019-02-08T16:04:44.948Z,5.67
2019-02-08T16:07:16.945Z,6.27
2019-02-08T16:09:49.037Z,7.87
2019-02-08T16:12:22.390Z,6.17
2019-02-08T16:14:54.461Z,8.87
2019-02-08T16:17:26.526Z,7.80
2019-02-08T16:19:58.762Z,7.83
2019-02-08T16:22:30.791Z,8.47
2019-02-08T16:25:04.275Z,8.57
2019-02-08T16:27:39.859Z,17.27
2019-02-08T16:30:14.208Z,12.00
2019-02-08T16:32:46.262Z,13.40
2019-02-08T16:35:19.913Z,15.10
2019-02-08T16:37:52.798Z,13.60
2019-02-08T16:40:26.240Z,14.67
2019-02-08T16:42:58.502Z,12.17
2019-02-08T16:45:32.189Z,7.17
2019-02-08T16:48:06.973Z,6.33
2019-02-08T16:50:39.475Z,5.10
2019-02-08T16:53:11.968Z,4.73
2019-02-08T16:55:43.991Z,5.27
2019-02-08T16:58:16.010Z,5.20
2019-02-08T17:00:48.035Z,6.07
2019-02-08T17:03:20.093Z,5.97
2019-02-08T17:05:52.248Z,5.20
2019-02-08T17:08:24.312Z,5.37
2019-02-08T17:10:56.306Z,8.20
2019-02-08T17:13:28.373Z,11.57
2019-02-08T17:16:00.571Z,8.03
2019-02-08T17:18:33.789Z,7.40
2019-02-08T17:21:05.820Z,8.63
2019-02-08T17:23:39.648Z,7.43
2019-02-08T17:26:11.774Z,5.13
2019-02-08T17:28:43.830Z,6.00
2019-02-08T17:31:15.838Z,5.33
2019-02-08T17:33:48.995Z,8.93
2019-02-08T17:36:21.067Z,7.90
2019-02-08T17:38:53.971Z,7.63
2019-02-08T17:41:25.997Z,11.17
2019-02-08T17:43:58.231Z,12.37
2019-02-08T17:46:30.265Z,10.93
2019-02-08T17:49:02.327Z,7.60
2019-02-08T17:51:34.376Z,8.00
2019-02-08T17:54:06.450Z,8.70
2019-02-08T17:56:38.546Z,7.73
2019-02-08T17:59:10.600Z,8.80
2019-02-08T18:01:42.807Z,7.13
2019-02-08T18:04:14.871Z,7.33
2019-02-08T18:06:46.875Z,5.40
2019-02-08T18:09:18.950Z,7.13
2019-02-08T18:11:52.277Z,7.83
2019-02-08T18:14:24.549Z,8.03
2019-02-08T18:16:56.768Z,7.60
2019-02-08T18:19:28.783Z,7.40
2019-02-08T18:22:01.737Z,7.10
2019-02-08T18:24:33.743Z,12.40
2019-02-08T18:27:05.794Z,9.13
2019-02-08T18:29:37.826Z,7.60
2019-02-08T18:32:09.910Z,9.23
2019-02-08T18:34:41.927Z,5.67
2019-02-08T18:37:13.962Z,6.37
2019-02-08T18:39:45.988Z,6.70
2019-02-08T18:42:18.079Z,8.47
2019-02-08T18:44:50.110Z,69.73
2019-02-08T18:47:22.162Z,27.80
2019-02-08T18:49:54.197Z,50.43
2019-02-08T18:52:26.252Z,13.17
2019-02-08T18:54:58.284Z,7.67
2019-02-08T18:57:30.327Z,6.70
2019-02-08T19:00:02.538Z,8.07
2019-02-08T19:02:34.628Z,8.67
2019-02-08T19:05:07.453Z,11.63
2019-02-08T19:07:39.520Z,65.40
2019-02-08T19:10:13.696Z,46.33
2019-02-08T19:12:45.834Z,38.40
2019-02-08T19:15:18.974Z,17.33
2019-02-08T19:17:51.162Z,13.20
2019-02-08T19:20:23.538Z,9.27
2019-02-08T19:22:55.660Z,6.83
2019-02-08T19:25:29.596Z,7.60
2019-02-08T19:28:01.631Z,8.73
2019-02-08T19:30:34.887Z,11.93
2019-02-08T19:33:06.986Z,11.40
2019-02-08T19:35:39.119Z,7.47
2019-02-08T19:38:11.229Z,6.17
2019-02-08T19:40:44.407Z,5.07
2019-02-08T19:43:16.611Z,5.93
2019-02-08T19:45:48.582Z,5.57
2019-02-08T19:48:20.890Z,7.17
2019-02-08T19:50:54.588Z,12.47
2019-02-08T19:53:26.701Z,10.17
2019-02-08T19:55:58.741Z,11.63
2019-02-08T19:58:34.512Z,12.70
2019-02-08T20:01:04.876Z,7.47
2019-02-08T20:03:36.949Z,7.00
2019-02-08T20:06:08.993Z,5.60
2019-02-08T20:08:41.105Z,5.60
2019-02-08T20:11:13.167Z,4.70
2019-02-08T20:13:45.230Z,5.53
2019-02-08T20:16:17.364Z,5.20
2019-02-08T20:18:49.412Z,7.20
2019-02-08T20:21:21.506Z,6.80
2019-02-08T20:23:53.531Z,5.93
2019-02-08T20:26:25.603Z,5.43
2019-02-08T20:28:57.671Z,9.67
2019-02-08T20:31:29.697Z,6.77
2019-02-08T20:34:01.751Z,6.63
2019-02-08T20:36:33.878Z,6.90
2019-02-08T20:39:07.389Z,5.90
2019-02-08T20:41:39.474Z,5.47
2019-02-08T20:44:11.552Z,6.27
2019-02-08T20:46:43.694Z,5.73
2019-02-08T20:49:15.728Z,10.70
2019-02-08T20:51:47.879Z,6.50
2019-02-08T20:54:19.919Z,4.63
2019-02-08T20:56:58.705Z,5.77
2019-02-08T20:59:25.961Z,7.43
2019-02-08T21:01:58.076Z,4.47
2019-02-08T21:04:30.143Z,6.33
2019-02-08T21:07:02.328Z,4.40
2019-02-08T21:09:34.382Z,5.27
2019-02-08T21:12:06.424Z,5.00
2019-02-08T21:14:38.443Z,5.10
2019-02-08T21:17:10.538Z,8.90
2019-02-08T21:19:42.582Z,8.80
2019-02-08T21:22:14.697Z,9.57
2019-02-08T21:24:46.846Z,14.93
2019-02-08T21:27:18.897Z,17.07
2019-02-08T21:29:52.114Z,6.17
2019-02-08T21:32:24.285Z,4.87
2019-02-08T21:34:56.321Z,4.97
2019-02-08T21:37:28.368Z,5.90
2019-02-08T21:40:00.443Z,4.60
2019-02-08T21:42:32.440Z,5.00
2019-02-08T21:45:07.863Z,4.93
2019-02-08T21:47:40.795Z,4.73
2019-02-08T21:50:14.894Z,4.33
2019-02-08T21:52:47.005Z,4.30
2019-02-08T21:55:19.144Z,4.03
2019-02-08T21:57:51.218Z,4.70
2019-02-08T22:00:27.963Z,5.33
2019-02-08T22:03:01.101Z,10.27
2019-02-08T22:05:44.589Z,7.50
2019-02-08T22:08:16.614Z,6.30
2019-02-08T22:10:48.607Z,6.50
2019-02-08T22:13:20.707Z,5.57
2019-02-08T22:15:53.416Z,8.07
2019-02-08T22:18:25.423Z,6.80
2019-02-08T22:20:57.427Z,12.43
2019-02-08T22:23:29.509Z,18.30
2019-02-08T22:26:01.472Z,28.40
2019-02-08T22:28:33.529Z,25.43
2019-02-08T22:31:05.678Z,14.50
2019-02-08T22:33:37.769Z,7.87
2019-02-08T22:36:09.768Z,9.73
2019-02-08T22:38:41.784Z,7.70
2019-02-08T22:41:13.806Z,6.53
2019-02-08T22:43:45.859Z,13.93
2019-02-08T22:46:17.873Z,9.97
2019-02-08T22:48:49.889Z,7.27
2019-02-08T22:51:21.968Z,10.37
2019-02-08T22:53:53.951Z,9.77
2019-02-08T22:56:25.960Z,8.80
2019-02-08T22:58:59.550Z,7.37
2019-02-08T23:01:35.508Z,6.77
2019-02-08T23:04:07.805Z,7.13
2019-02-08T23:06:44.936Z,7.03
2019-02-08T23:09:21.037Z,7.27
2019-02-08T23:11:53.063Z,6.23
2019-02-08T23:14:25.119Z,7.07
2019-02-08T23:16:57.093Z,6.30
2019-02-08T23:19:29.086Z,5.73
2019-02-08T23:22:01.088Z,5.83
2019-02-08T23:24:33.076Z,5.80
2019-02-08T23:27:05.089Z,6.30
2019-02-08T23:29:37.071Z,6.97
2019-02-08T23:32:09.130Z,6.43
2019-02-08T23:34:41.201Z,6.83
2019-02-08T23:37:13.213Z,7.27
2019-02-08T23:39:45.313Z,7.83
2019-02-08T23:42:17.318Z,7.00
2019-02-08T23:44:49.331Z,8.37
2019-02-08T23:47:21.336Z,6.77
2019-02-08T23:49:53.352Z,6.83
2019-02-08T23:52:25.437Z,8.67
2019-02-08T23:54:57.477Z,6.17
2019-02-08T23:57:29.465Z,7.70
